createdAt,value
2022-09-21T00:08:20.841Z,97.2
2022-09-21T00:20:20.542Z,97.3
2022-09-21T00:32:20.649Z,97.3
2022-09-21T00:44:20.557Z,97.2
2022-09-21T00:56:20.722Z,97.1
2022-09-21T01:08:21.054Z,97.1
2022-09-21T01:20:21.042Z,97.1
2022-09-21T01:32:20.686Z,97.2
2022-09-21T01:44:21.071Z,97.0
2022-09-21T01:56:21.131Z,97.0
2022-09-21T02:08:20.737Z,97.0
2022-09-21T02:20:20.798Z,96.9
2022-09-21T02:32:21.504Z,96.9
2022-09-21T02:44:20.784Z,96.9
2022-09-21T02:56:21.141Z,96.9
2022-09-21T03:08:21.074Z,96.9
2022-09-21T03:20:20.865Z,96.8
2022-09-21T03:32:20.835Z,96.9
2022-09-21T03:44:20.871Z,96.9
2022-09-21T03:56:21.030Z,96.8
2022-09-21T04:08:21.058Z,96.8
2022-09-21T04:20:21.012Z,96.8
2022-09-21T04:32:21.267Z,96.8
2022-09-21T04:44:20.783Z,96.8
2022-09-21T04:56:20.798Z,96.7
2022-09-21T05:08:21.143Z,96.7
2022-09-21T05:20:20.813Z,96.7
2022-09-21T05:32:20.735Z,96.8
2022-09-21T05:44:21.128Z,96.8
2022-09-21T05:56:21.196Z,96.9
2022-09-21T06:08:20.724Z,96.9
2022-09-21T06:20:20.751Z,96.9
2022-09-21T06:32:21.316Z,97.0
2022-09-21T06:44:21.040Z,97.2
2022-09-21T06:56:21.187Z,97.3
2022-09-21T07:20:21.335Z,97.6
2022-09-21T07:32:21.190Z,97.7
2022-09-21T07:44:21.460Z,95.9
2022-09-21T07:56:21.170Z,83.7
2022-09-21T08:08:21.058Z,86.3
2022-09-21T08:20:21.043Z,83.1
2022-09-21T08:32:46.600Z,76.6
2022-09-21T08:44:20.651Z,73.3
2022-09-21T08:56:20.655Z,72.8
2022-09-21T09:08:21.047Z,75.0
2022-09-21T09:20:20.960Z,69.9
2022-09-21T09:32:20.837Z,67.3
2022-09-21T09:44:20.704Z,65.9
2022-09-21T09:56:20.569Z,67.5
2022-09-21T10:08:20.605Z,59.7
2022-09-21T10:20:20.625Z,69.4
2022-09-21T10:32:20.603Z,61.8
2022-09-21T10:44:20.616Z,68.0
2022-09-21T10:56:20.561Z,55.0
2022-09-21T11:08:20.958Z,58.1
2022-09-21T11:20:20.551Z,48.6
2022-09-21T11:32:20.720Z,52.1
2022-09-21T11:44:20.536Z,46.4
2022-09-21T11:56:20.828Z,46.8
2022-09-21T12:08:20.949Z,49.7
2022-09-21T12:20:20.860Z,50.0
2022-09-21T12:32:20.531Z,44.9
2022-09-21T12:44:20.653Z,48.3
2022-09-21T12:56:21.072Z,47.1
2022-09-21T13:08:20.627Z,46.7
2022-09-21T13:20:20.831Z,46.4
2022-09-21T13:32:20.753Z,46.1
2022-09-21T13:44:20.608Z,48.8
2022-09-21T13:56:20.659Z,43.5
2022-09-21T14:08:21.055Z,46.6
2022-09-21T14:20:21.012Z,43.2
2022-09-21T14:32:20.564Z,54.1
2022-09-21T14:44:20.790Z,55.4
2022-09-21T14:56:20.640Z,53.3
2022-09-21T15:08:20.585Z,41.3
2022-09-21T15:20:20.665Z,58.0
2022-09-21T15:32:20.986Z,47.5
2022-09-21T15:44:20.592Z,56.2
2022-09-21T15:56:20.602Z,52.3
2022-09-21T16:08:20.560Z,62.6
2022-09-21T16:20:21.005Z,63.2
2022-09-21T16:32:21.269Z,61.7
2022-09-21T16:44:20.862Z,67.6
2022-09-21T16:56:20.712Z,71.0
2022-09-21T17:08:21.048Z,74.7
2022-09-21T17:20:21.420Z,71.7
2022-09-21T17:32:20.877Z,70.7
2022-09-21T17:44:20.578Z,74.1
2022-09-21T17:56:20.715Z,77.7
2022-09-21T18:08:21.031Z,74.4
2022-09-21T18:20:21.239Z,75.9
2022-09-21T18:32:21.212Z,75.4
2022-09-21T18:44:20.776Z,77.2
2022-09-21T18:56:21.394Z,77.1
2022-09-21T19:08:20.759Z,80.3
2022-09-21T19:20:23.887Z,87.0
2022-09-21T19:32:20.849Z,90.1
2022-09-21T19:44:21.105Z,91.3
2022-09-21T19:56:20.730Z,94.5
2022-09-21T20:08:21.062Z,93.9
2022-09-21T20:20:21.253Z,97.0
2022-09-21T20:32:20.677Z,97.5
2022-09-21T20:44:21.243Z,97.5
2022-09-21T20:56:20.599Z,97.4
2022-09-21T21:08:20.672Z,97.4
2022-09-21T21:20:20.944Z,97.3
2022-09-21T21:32:20.744Z,97.3
2022-09-21T21:44:20.597Z,97.3
2022-09-21T21:56:20.899Z,97.3
2022-09-21T22:08:20.884Z,97.2
2022-09-21T22:20:20.700Z,97.2
2022-09-21T22:32:20.761Z,97.2
2022-09-21T22:44:20.697Z,97.2
2022-09-21T22:56:21.147Z,97.3
2022-09-21T23:08:21.176Z,97.2
2022-09-21T23:20:20.711Z,97.1
2022-09-21T23:32:20.610Z,97.1
2022-09-21T23:44:21.101Z,97.1
2022-09-21T23:56:20.708Z,97.2
